createdAt,value
2023-02-03T00:00:34.295Z,3.20
2023-02-03T00:03:02.702Z,3.60
2023-02-03T00:05:31.539Z,3.25
2023-02-03T00:07:59.848Z,3.58
2023-02-03T00:10:28.450Z,3.45
2023-02-03T00:12:57.663Z,3.42
2023-02-03T00:15:26.831Z,3.33
2023-02-03T00:17:55.202Z,3.27
2023-02-03T00:20:23.751Z,4.05
2023-02-03T00:22:52.388Z,4.40
2023-02-03T00:25:21.441Z,5.25
2023-02-03T00:27:49.707Z,4.92
2023-02-03T00:30:20.728Z,5.05
2023-02-03T00:32:48.966Z,5.67
2023-02-03T00:35:17.356Z,3.85
2023-02-03T00:37:47.063Z,4.45
2023-02-03T00:40:52.568Z,4.15
2023-02-03T00:43:21.635Z,4.17
2023-02-03T00:45:50.236Z,3.60
2023-02-03T00:48:18.511Z,2.85
2023-02-03T00:50:47.832Z,3.35
2023-02-03T00:53:16.402Z,2.50
2023-02-03T00:55:44.806Z,2.60
2023-02-03T00:58:13.071Z,2.58
2023-02-03T01:00:41.390Z,2.40
2023-02-03T01:03:10.274Z,2.37
2023-02-03T01:05:38.669Z,2.35
2023-02-03T01:08:06.916Z,1.67
2023-02-03T01:19:05.770Z,2.10
2023-02-03T01:24:40.287Z,1.90
2023-02-03T01:50:36.717Z,1.17
2023-02-03T01:53:06.514Z,1.67
2023-02-03T01:55:42.285Z,1.30
2023-02-03T01:58:12.177Z,0.82
2023-02-03T02:00:40.796Z,1.30
2023-02-03T02:03:09.552Z,1.02
2023-02-03T02:05:48.519Z,1.17
2023-02-03T02:08:17.973Z,1.10
2023-02-03T02:10:46.725Z,1.30
2023-02-03T02:13:16.646Z,1.22
2023-02-03T02:16:02.849Z,1.27
2023-02-03T02:18:49.303Z,1.00
2023-02-03T02:21:22.296Z,0.75
2023-02-03T02:24:01.041Z,1.55
2023-02-03T02:26:31.130Z,0.90
2023-02-03T02:29:03.548Z,1.30
2023-02-03T02:31:36.427Z,1.25
2023-02-03T02:34:09.324Z,0.70
2023-02-03T02:36:39.136Z,2.50
2023-02-03T02:39:17.853Z,1.22
2023-02-03T02:41:47.616Z,1.35
2023-02-03T02:44:35.855Z,0.90
2023-02-03T02:47:06.908Z,1.25
2023-02-03T02:49:36.731Z,1.02
2023-02-03T02:52:06.285Z,0.78
2023-02-03T02:54:36.112Z,0.98
2023-02-03T02:57:06.152Z,0.90
2023-02-03T02:59:34.428Z,1.65
2023-02-03T03:02:03.848Z,0.90
2023-02-03T03:04:33.521Z,1.65
2023-02-03T03:07:03.629Z,1.10
2023-02-03T03:09:35.697Z,1.50
2023-02-03T03:12:05.448Z,1.32
2023-02-03T03:14:35.163Z,1.65
2023-02-03T03:17:07.816Z,2.15
2023-02-03T03:19:39.261Z,1.40
2023-02-03T03:22:18.383Z,2.10
2023-02-03T03:24:48.890Z,1.85
2023-02-03T03:29:49.311Z,2.25
2023-02-03T03:32:17.938Z,2.12
2023-02-03T03:34:46.360Z,2.58
2023-02-03T03:37:18.960Z,2.75
2023-02-03T03:39:57.296Z,2.90
2023-02-03T03:42:45.399Z,2.95
2023-02-03T03:45:24.416Z,2.80
2023-02-03T03:47:55.430Z,2.60
2023-02-03T03:50:25.316Z,3.33
2023-02-03T03:52:55.383Z,3.05
2023-02-03T03:55:23.726Z,3.80
2023-02-03T03:58:04.006Z,3.22
2023-02-03T04:00:33.928Z,2.85
2023-02-03T04:03:05.396Z,4.22
2023-02-03T04:05:34.341Z,3.17
2023-02-03T04:08:08.851Z,4.37
2023-02-03T04:10:38.643Z,3.25
2023-02-03T04:13:08.341Z,3.42
2023-02-03T04:15:38.549Z,3.85
2023-02-03T04:18:07.669Z,4.42
2023-02-03T04:20:40.462Z,3.92
2023-02-03T04:23:08.296Z,3.83
2023-02-03T04:25:36.390Z,5.15
2023-02-03T04:28:07.483Z,5.72
2023-02-03T04:30:35.989Z,4.45
2023-02-03T04:33:07.709Z,4.65
2023-02-03T04:35:36.695Z,5.78
2023-02-03T04:38:08.428Z,6.08
2023-02-03T04:40:46.760Z,5.10
2023-02-03T04:43:17.267Z,5.33
2023-02-03T04:48:15.497Z,5.05
2023-02-03T04:50:45.540Z,6.92
2023-02-03T04:55:45.531Z,4.70
2023-02-03T04:58:53.181Z,6.25
2023-02-03T05:01:21.659Z,4.97
2023-02-03T05:03:51.071Z,6.75
2023-02-03T05:06:21.870Z,5.43
2023-02-03T05:08:50.606Z,5.12
2023-02-03T05:11:57.135Z,7.50
2023-02-03T05:14:26.390Z,4.78
2023-02-03T05:16:55.058Z,5.45
2023-02-03T05:19:23.821Z,5.72
2023-02-03T05:21:52.161Z,6.28
2023-02-03T05:24:26.136Z,5.10
2023-02-03T05:26:54.525Z,5.25
2023-02-03T05:29:23.112Z,5.55
2023-02-03T05:31:53.502Z,4.50
2023-02-03T05:34:26.495Z,4.92
2023-02-03T05:36:52.535Z,3.30
2023-02-03T05:39:30.869Z,4.05
2023-02-03T05:41:57.192Z,6.55
2023-02-03T05:44:27.699Z,10.95
2023-02-03T05:46:59.512Z,8.18
2023-02-03T05:49:31.725Z,7.12
2023-02-03T05:52:00.337Z,5.50
2023-02-03T05:54:28.749Z,8.60
2023-02-03T05:56:57.528Z,5.65
2023-02-03T05:59:25.874Z,4.55
2023-02-03T06:02:07.792Z,3.52
2023-02-03T06:04:30.882Z,2.70
2023-02-03T06:07:07.016Z,2.45
2023-02-03T06:09:37.862Z,1.85
2023-02-03T06:12:06.797Z,2.00
2023-02-03T06:14:43.058Z,1.80
2023-02-03T06:17:18.507Z,1.90
2023-02-03T06:19:47.684Z,2.62
2023-02-03T06:22:17.568Z,1.22
2023-02-03T06:24:51.039Z,1.45
2023-02-03T06:27:21.399Z,1.10
2023-02-03T06:33:06.189Z,0.90
2023-02-03T06:35:34.848Z,0.90
2023-02-03T06:38:05.096Z,1.10
2023-02-03T06:43:01.585Z,1.20
2023-02-03T06:45:30.262Z,1.15
2023-02-03T06:47:58.596Z,0.95
2023-02-03T06:50:29.751Z,0.50
2023-02-03T06:52:59.172Z,1.10
2023-02-03T06:55:27.990Z,1.30
2023-02-03T06:57:58.212Z,1.15
2023-02-03T07:05:43.501Z,1.10
2023-02-03T07:11:10.398Z,0.93
2023-02-03T07:19:29.466Z,0.82
2023-02-03T07:22:07.317Z,0.75
2023-02-03T07:30:30.220Z,0.80
2023-02-03T07:33:09.762Z,0.75
2023-02-03T07:44:23.476Z,1.02
2023-02-03T07:55:43.515Z,0.98
2023-02-03T07:58:36.245Z,0.93
2023-02-03T08:01:27.451Z,0.80
2023-02-03T08:04:20.197Z,0.88
2023-02-03T08:07:09.979Z,0.72
2023-02-03T08:12:45.389Z,0.82
2023-02-03T08:21:28.184Z,1.17
2023-02-03T08:24:18.661Z,0.95
2023-02-03T08:27:11.519Z,1.22
2023-02-03T08:35:38.393Z,2.12
2023-02-03T08:43:58.331Z,1.95
2023-02-03T08:49:35.087Z,2.92
2023-02-03T09:12:42.213Z,4.17
2023-02-03T09:17:40.008Z,6.60
2023-02-03T09:23:05.233Z,4.75
2023-02-03T09:28:26.661Z,6.80
2023-02-03T09:30:55.970Z,6.58
2023-02-03T09:33:25.208Z,6.25
2023-02-03T09:38:43.552Z,6.62
2023-02-03T09:41:13.375Z,7.03
2023-02-03T09:43:48.986Z,7.78
2023-02-03T09:46:20.267Z,9.85
2023-02-03T09:48:51.833Z,8.70
2023-02-03T09:51:32.447Z,10.00
2023-02-03T09:54:44.420Z,8.83
2023-02-03T09:57:38.247Z,9.63
2023-02-03T09:59:48.553Z,7.70
2023-02-03T10:02:33.717Z,10.53
2023-02-03T10:08:04.496Z,12.00
2023-02-03T10:10:46.815Z,11.80
2023-02-03T10:13:48.987Z,12.18
2023-02-03T10:25:03.080Z,10.58
2023-02-03T10:27:33.301Z,13.25
2023-02-03T10:35:58.361Z,11.53
2023-02-03T10:38:44.960Z,12.13
2023-02-03T10:41:15.651Z,10.08
2023-02-03T10:43:57.714Z,13.80
2023-02-03T10:49:26.278Z,12.13
2023-02-03T10:51:59.757Z,14.55
2023-02-03T10:54:45.550Z,13.55
2023-02-03T10:57:13.377Z,13.08
2023-02-03T10:59:48.339Z,14.30
2023-02-03T11:02:32.416Z,11.48
2023-02-03T11:05:30.331Z,11.45
2023-02-03T11:08:12.681Z,10.45
2023-02-03T11:13:42.156Z,10.20
2023-02-03T11:19:15.245Z,6.58
2023-02-03T11:27:26.017Z,7.83
2023-02-03T11:30:13.135Z,8.03
2023-02-03T11:38:42.478Z,8.33
2023-02-03T11:41:25.081Z,10.90
2023-02-03T11:43:59.536Z,8.55
2023-02-03T11:49:45.907Z,9.88
2023-02-03T11:55:51.181Z,11.40
2023-02-03T11:58:41.810Z,10.45
2023-02-03T12:01:23.060Z,10.03
2023-02-03T12:04:07.415Z,9.38
2023-02-03T12:13:51.139Z,15.23
2023-02-03T12:16:43.960Z,15.25
2023-02-03T12:19:24.423Z,14.45
2023-02-03T12:57:33.523Z,8.95
2023-02-03T13:00:24.811Z,10.08
2023-02-03T13:03:13.730Z,11.10
2023-02-03T13:05:57.393Z,10.60
2023-02-03T13:08:55.930Z,9.80
2023-02-03T13:11:43.792Z,10.18
2023-02-03T13:14:21.149Z,9.23
2023-02-03T13:16:53.952Z,9.38
2023-02-03T13:19:32.615Z,11.35
2023-02-03T13:22:21.459Z,11.50
2023-02-03T13:24:53.100Z,11.73
2023-02-03T13:27:52.163Z,11.45
2023-02-03T13:30:47.553Z,10.63
2023-02-03T13:33:21.958Z,13.53
2023-02-03T13:36:05.401Z,12.28
2023-02-03T13:38:53.495Z,11.22
2023-02-03T13:41:30.660Z,10.15
2023-02-03T13:44:04.751Z,11.68
2023-02-03T13:46:36.484Z,10.53
2023-02-03T13:49:07.356Z,10.25
2023-02-03T13:51:43.390Z,11.63
2023-02-03T13:54:32.713Z,9.15
2023-02-03T13:57:06.514Z,8.73
2023-02-03T13:59:42.298Z,10.48
2023-02-03T14:02:30.326Z,9.55
2023-02-03T14:05:01.977Z,8.55
2023-02-03T14:07:38.095Z,9.98
2023-02-03T14:10:15.610Z,10.65
2023-02-03T14:12:57.289Z,10.63
2023-02-03T14:15:45.342Z,10.58
2023-02-03T14:18:35.289Z,9.65
2023-02-03T14:21:15.005Z,10.18
2023-02-03T14:23:46.640Z,10.38
2023-02-03T14:26:38.242Z,10.90
2023-02-03T14:29:08.897Z,11.22
2023-02-03T14:31:57.052Z,10.53
2023-02-03T14:34:42.957Z,10.53
2023-02-03T14:37:25.219Z,10.78
2023-02-03T14:40:11.144Z,9.40
2023-02-03T14:43:09.362Z,11.15
2023-02-03T14:45:41.576Z,9.38
2023-02-03T14:48:36.671Z,9.60
2023-02-03T14:51:27.684Z,12.55
2023-02-03T14:54:16.888Z,10.75
2023-02-03T14:57:12.346Z,10.58
2023-02-03T14:59:52.631Z,10.43
2023-02-03T15:04:55.191Z,11.43
2023-02-03T15:07:45.597Z,13.25
2023-02-03T15:10:20.194Z,11.12
2023-02-03T15:12:51.366Z,9.48
2023-02-03T15:15:22.524Z,11.78
2023-02-03T15:17:53.396Z,14.33
2023-02-03T15:20:30.687Z,13.55
2023-02-03T15:22:59.358Z,11.38
2023-02-03T15:25:30.927Z,12.05
2023-02-03T15:28:16.301Z,13.70
2023-02-03T15:30:45.816Z,14.75
2023-02-03T15:33:21.727Z,15.83
2023-02-03T15:35:54.276Z,16.65
2023-02-03T15:38:32.937Z,13.72
2023-02-03T15:41:01.574Z,12.58
2023-02-03T15:43:33.237Z,13.70
2023-02-03T15:46:06.408Z,13.00
2023-02-03T15:48:38.341Z,11.80
2023-02-03T15:51:21.829Z,13.90
2023-02-03T15:54:02.826Z,12.75
2023-02-03T15:56:37.825Z,12.75
2023-02-03T15:59:19.939Z,11.53
2023-02-03T16:04:38.964Z,13.35
2023-02-03T16:07:14.345Z,12.90
2023-02-03T16:09:42.914Z,11.28
2023-02-03T16:12:26.212Z,10.95
2023-02-03T16:14:56.922Z,13.20
2023-02-03T16:17:31.572Z,12.90
2023-02-03T16:20:15.822Z,11.25
2023-02-03T16:22:46.880Z,11.93
2023-02-03T16:25:21.820Z,15.18
2023-02-03T16:28:20.062Z,11.25
2023-02-03T16:31:34.408Z,10.43
2023-02-03T16:34:32.214Z,10.38
2023-02-03T16:37:20.212Z,12.33
2023-02-03T16:40:06.905Z,12.15
2023-02-03T16:42:58.503Z,10.93
2023-02-03T16:45:45.986Z,12.23
2023-02-03T16:48:33.306Z,12.35
2023-02-03T16:51:07.795Z,13.55
2023-02-03T16:53:36.394Z,10.88
2023-02-03T16:56:06.031Z,11.15
2023-02-03T16:58:34.930Z,11.43
2023-02-03T17:01:06.919Z,10.68
2023-02-03T17:03:37.753Z,10.88
2023-02-03T17:06:10.603Z,11.05
2023-02-03T17:08:41.189Z,11.25
2023-02-03T17:11:15.949Z,10.90
2023-02-03T17:13:45.255Z,11.03
2023-02-03T17:16:24.291Z,11.03
2023-02-03T17:18:55.824Z,9.45
2023-02-03T17:21:27.942Z,9.63
2023-02-03T17:24:00.284Z,9.55
2023-02-03T17:26:30.083Z,8.50
2023-02-03T17:29:00.347Z,7.42
2023-02-03T17:31:30.036Z,8.95
2023-02-03T17:36:27.355Z,8.00
2023-02-03T17:55:33.312Z,8.55
2023-02-03T17:58:02.215Z,7.58
2023-02-03T18:00:32.474Z,5.95
2023-02-03T18:03:02.522Z,7.67
2023-02-03T18:05:32.583Z,6.25
2023-02-03T18:08:06.098Z,5.78
2023-02-03T18:13:03.138Z,5.40
2023-02-03T18:15:32.950Z,5.33
2023-02-03T18:18:02.756Z,6.65
2023-02-03T18:20:31.478Z,5.75
2023-02-03T18:23:00.178Z,5.95
2023-02-03T18:25:30.140Z,4.85
2023-02-03T18:27:58.827Z,5.12
2023-02-03T18:30:27.513Z,4.80
2023-02-03T18:32:58.862Z,5.05
2023-02-03T18:35:29.561Z,4.75
2023-02-03T18:37:58.145Z,3.83
2023-02-03T18:40:26.743Z,3.55
2023-02-03T18:42:58.544Z,2.58
2023-02-03T18:45:27.254Z,2.72
2023-02-03T18:47:56.283Z,3.42
2023-02-03T18:50:25.482Z,3.05
2023-02-03T18:52:55.140Z,3.92
2023-02-03T18:55:24.805Z,3.20
2023-02-03T18:57:53.410Z,2.12
2023-02-03T19:00:23.312Z,2.67
2023-02-03T19:02:54.187Z,2.42
2023-02-03T19:05:22.701Z,2.58
2023-02-03T19:07:52.678Z,2.00
2023-02-03T19:10:21.279Z,2.65
2023-02-03T19:12:49.992Z,4.35
2023-02-03T19:15:19.413Z,2.20
2023-02-03T19:17:47.979Z,1.63
2023-02-03T19:20:17.765Z,2.05
2023-02-03T19:22:47.530Z,2.22
2023-02-03T19:25:16.469Z,2.35
2023-02-03T19:27:46.051Z,3.70
2023-02-03T19:30:16.128Z,2.15
2023-02-03T19:32:45.278Z,1.77
2023-02-03T19:35:15.505Z,1.75
2023-02-03T19:40:15.664Z,1.55
2023-02-03T19:42:44.279Z,1.47
2023-02-03T19:45:15.228Z,2.60
2023-02-03T19:47:55.869Z,2.25
2023-02-03T19:50:29.496Z,1.63
2023-02-03T19:53:00.266Z,2.30
2023-02-03T19:55:30.739Z,1.20
2023-02-03T19:58:00.287Z,1.45
2023-02-03T20:00:30.164Z,2.25
2023-02-03T20:02:59.744Z,1.47
2023-02-03T20:05:36.960Z,2.30
2023-02-03T20:08:09.536Z,1.20
2023-02-03T20:10:47.831Z,1.47
2023-02-03T20:13:23.569Z,1.62
2023-02-03T20:15:53.031Z,1.42
2023-02-03T20:18:24.097Z,1.30
2023-02-03T20:21:34.770Z,2.10
2023-02-03T20:24:04.162Z,1.20
2023-02-03T20:26:33.612Z,1.55
2023-02-03T20:29:02.973Z,2.00
2023-02-03T20:31:32.663Z,2.07
2023-02-03T20:34:03.266Z,1.60
2023-02-03T20:36:32.869Z,1.52
2023-02-03T20:39:02.175Z,1.80
2023-02-03T20:41:31.617Z,2.37
2023-02-03T20:44:02.001Z,2.53
2023-02-03T20:46:31.444Z,2.20
2023-02-03T20:49:00.809Z,2.90
2023-02-03T20:51:30.164Z,2.10
2023-02-03T20:53:59.524Z,1.90
2023-02-03T20:56:28.968Z,2.30
2023-02-03T20:58:58.260Z,2.33
2023-02-03T21:01:29.794Z,2.20
2023-02-03T21:04:16.899Z,3.40
2023-02-03T21:06:46.275Z,2.00
2023-02-03T21:09:18.652Z,3.90
2023-02-03T21:11:47.998Z,2.20
2023-02-03T21:14:23.311Z,2.27
2023-02-03T21:16:54.502Z,3.55
2023-02-03T21:19:33.057Z,1.60
2023-02-03T21:22:20.411Z,2.50
2023-02-03T21:24:58.286Z,3.75
2023-02-03T21:27:35.354Z,3.17
2023-02-03T21:30:13.605Z,2.30
2023-02-03T21:32:44.174Z,2.77
2023-02-03T21:35:31.400Z,2.60
2023-02-03T21:38:03.842Z,2.47
2023-02-03T21:40:35.489Z,3.22
2023-02-03T21:43:06.144Z,5.00
2023-02-03T21:45:38.504Z,2.95
2023-02-03T21:48:22.703Z,2.10
2023-02-03T21:50:53.067Z,2.12
2023-02-03T21:56:16.043Z,3.00
2023-02-03T21:58:47.544Z,2.75
2023-02-03T22:01:17.996Z,2.62
2023-02-03T22:03:52.751Z,2.50
2023-02-03T22:06:25.188Z,2.08
2023-02-03T22:08:57.521Z,5.40
2023-02-03T22:11:29.369Z,3.95
2023-02-03T22:13:59.002Z,2.52
2023-02-03T22:16:29.121Z,2.42
2023-02-03T22:18:58.528Z,2.83
2023-02-03T22:21:28.167Z,2.62
2023-02-03T22:23:57.949Z,3.37
2023-02-03T22:26:27.492Z,2.42
2023-02-03T22:28:57.065Z,2.85
2023-02-03T22:31:26.612Z,2.80
2023-02-03T22:36:27.752Z,2.22
2023-02-03T22:38:57.096Z,2.40
2023-02-03T22:41:26.459Z,1.50
2023-02-03T22:43:56.234Z,2.00
2023-02-03T22:46:25.763Z,2.40
2023-02-03T22:48:55.076Z,1.55
2023-02-03T22:51:24.435Z,2.33
2023-02-03T22:53:53.736Z,2.10
2023-02-03T22:56:23.749Z,1.95
2023-02-03T22:58:53.192Z,1.60
2023-02-03T23:01:22.588Z,2.17
2023-02-03T23:03:51.894Z,2.30
2023-02-03T23:06:21.399Z,1.27
2023-02-03T23:08:50.700Z,2.02
2023-02-03T23:11:20.058Z,1.32
2023-02-03T23:13:49.427Z,1.50
2023-02-03T23:16:18.828Z,1.47
2023-02-03T23:18:48.430Z,1.80
2023-02-03T23:21:17.796Z,1.52
2023-02-03T23:23:47.208Z,1.15
2023-02-03T23:26:16.632Z,1.40
2023-02-03T23:28:46.099Z,1.15
2023-02-03T23:31:16.428Z,1.32
2023-02-03T23:33:47.620Z,1.52
2023-02-03T23:36:17.009Z,0.95
2023-02-03T23:38:46.292Z,1.82
2023-02-03T23:41:15.659Z,1.22
2023-02-03T23:43:45.120Z,1.20
2023-02-03T23:46:14.715Z,1.30
2023-02-03T23:48:44.093Z,1.05
2023-02-03T23:51:13.455Z,1.43
2023-02-03T23:53:42.771Z,1.25
2023-02-03T23:56:13.856Z,1.50
2023-02-03T23:58:43.153Z,0.93
